Meath Environmental Platform

Observations for Trim Market St

Time AQI Temp °C Hum % Pres Pa CO μg/m³ H₂S μg/m³ NO μg/m³ NO₂ μg/m³ O₃ μg/m³ SO₂ μg/m³ PM1 μg/m³ PM2.5 μg/m³ PM10 μg/m³
Thursday 27 August 2026
20:04 2 18.7 84 2,147,483,647 0.28 0 1.78 25.61 30.55 0 13.54 16.4 23.89
20:03 2 18.7 84 2,147,483,647 0.3 0 1.63 23.05 36.06 0 12.83 15.47 23.35
20:02 2 18.7 84 2,147,483,647 0.34 0 2.18 25.08 30.63 0 14.96 18.27 27.71
20:01 2 18.7 84 2,147,483,647 0.35 0 2.52 26.15 31.3 0 13.54 16.4 24.99
19:59 2 18.7 84 2,147,483,647 1.08 0 1.99 25.62 32.98 0 12.83 15.47 24.99
19:54 2 18.7 84 2,147,483,647 0.32 0 8.26 50.19 13.35 0 13.54 16.89 26.12
19:52 2 18.7 83 2,147,483,647 0.32 0 3.24 33.11 28.49 0 14.96 15.96 25.04
19:47 2 18.8 83 2,147,483,647 0.38 0 1.63 21.52 44.71 0 14.96 17.38 27.27
19:45 2 18.8 83 2,147,483,647 1 0 7.31 31.46 30.97 0 14.96 16.93 26.2
19:38 2 18.8 83 2,147,483,647 0.3 0 7.41 41.98 22.52 0 13.54 16.49 24.61
19:37 2 18.8 83 2,147,483,647 0.34 0 7.38 57.6 8.5 0 14.25 16.49 24.07
19:36 2 18.8 83 2,147,483,647 0.27 0 6.88 42.73 21.37 0 13.54 14.63 21.33
19:35 2 18.8 83 2,147,483,647 0.27 0 1.77 23.96 35.09 0 14.96 16.5 24.09
19:34 2 18.8 83 2,147,483,647 0.24 0 1.13 21.18 45.77 0 13.54 15.57 24.09
19:33 2 18.9 82 2,147,483,647 0.35 0 0.85 23.25 44.8 0 14.96 15.58 22.45
19:32 2 18.8 82 2,147,483,647 0.39 0 1.05 22.9 35.26 0 13.54 15.58 23
19:31 2 18.9 82 2,147,483,647 0.44 0 1.02 25.08 32.98 0 13.54 15.58 24.68
19:30 2 18.9 82 2,147,483,647 0.25 0 1.35 21.45 38.7 0 13.54 15.58 22.47
19:29 2 18.9 82 2,147,483,647 0.25 0 1.49 22.69 39.27 0 14.96 16.53 24.7
19:28 2 18.9 82 2,147,483,647 0.26 0 1.9 27.39 41.27 0 14.25 17 26.36